sensor_id;sensor_type;location;lat;lon;timestamp;P1;durP1;ratioP1;P2;durP2;ratioP2
7169;SDS011;3626;42.656;23.312;2024-03-08T00:00:03;16.57;;;6.47;;
7169;SDS011;3626;42.656;23.312;2024-03-08T00:00:15;16.30;;;6.37;;
7169;SDS011;3626;42.656;23.312;2024-03-08T00:00:23;15.87;;;6.53;;
7169;SDS011;3626;42.656;23.312;2024-03-08T00:00:31;15.77;;;6.62;;
7169;SDS011;3626;42.656;23.312;2024-03-08T00:00:38;14.87;;;6.60;;
7169;SDS011;3626;42.656;23.312;2024-03-08T00:00:45;14.40;;;6.40;;
7169;SDS011;3626;42.656;23.312;2024-03-08T00:00:51;16.55;;;6.40;;
7169;SDS011;3626;42.656;23.312;2024-03-08T00:00:57;16.50;;;6.40;;
7169;SDS011;3626;42.656;23.312;2024-03-08T00:01:02;16.25;;;6.32;;
7169;SDS011;3626;42.656;23.312;2024-03-08T00:01:08;16.07;;;6.47;;
7169;SDS011;3626;42.656;23.312;2024-03-08T00:01:14;16.55;;;6.57;;
7169;SDS011;3626;42.656;23.312;2024-03-08T00:01:21;16.20;;;6.45;;
7169;SDS011;3626;42.656;23.312;2024-03-08T00:01:27;16.23;;;6.40;;
7169;SDS011;3626;42.656;23.312;2024-03-08T00:01:32;17.00;;;6.45;;
7169;SDS011;3626;42.656;23.312;2024-03-08T00:01:38;17.10;;;6.40;;
7169;SDS011;3626;42.656;23.312;2024-03-08T00:01:44;17.00;;;6.40;;
7169;SDS011;3626;42.656;23.312;2024-03-08T00:01:50;15.13;;;6.45;;
7169;SDS011;3626;42.656;23.312;2024-03-08T00:01:55;14.38;;;6.35;;
7169;SDS011;3626;42.656;23.312;2024-03-08T00:02:02;14.38;;;6.40;;
7169;SDS011;3626;42.656;23.312;2024-03-08T00:02:07;14.63;;;6.38;;
7169;SDS011;3626;42.656;23.312;2024-03-08T00:02:13;13.85;;;6.22;;
7169;SDS011;3626;42.656;23.312;2024-03-08T00:02:19;13.53;;;6.20;;
7169;SDS011;3626;42.656;23.312;2024-03-08T00:02:24;13.25;;;6.13;;
7169;SDS011;3626;42.656;23.312;2024-03-08T00:02:30;13.07;;;6.25;;
7169;SDS011;3626;42.656;23.312;2024-03-08T00:02:36;12.77;;;6.20;;
7169;SDS011;3626;42.656;23.312;2024-03-08T00:02:43;13.20;;;6.36;;
7169;SDS011;3626;42.656;23.312;2024-03-08T00:02:49;13.00;;;6.30;;
7169;SDS011;3626;42.656;23.312;2024-03-08T00:02:55;13.14;;;6.46;;
7169;SDS011;3626;42.656;23.312;2024-03-08T00:03:01;13.02;;;6.50;;
7169;SDS011;3626;42.656;23.312;2024-03-08T00:03:07;13.17;;;6.33;;
7169;SDS011;3626;42.656;23.312;2024-03-08T00:03:13;13.60;;;6.30;;
7169;SDS011;3626;42.656;23.312;2024-03-08T00:03:18;13.85;;;6.20;;
7169;SDS011;3626;42.656;23.312;2024-03-08T00:03:24;14.10;;;6.22;;
7169;SDS011;3626;42.656;23.312;2024-03-08T00:03:30;13.60;;;6.17;;
7169;SDS011;3626;42.656;23.312;2024-03-08T00:03:36;13.95;;;6.25;;
7169;SDS011;3626;42.656;23.312;2024-03-08T00:03:41;13.60;;;6.10;;
7169;SDS011;3626;42.656;23.312;2024-03-08T00:03:47;13.25;;;5.97;;
7169;SDS011;3626;42.656;23.312;2024-03-08T00:03:53;12.73;;;5.70;;
7169;SDS011;3626;42.656;23.312;2024-03-08T00:03:58;12.98;;;5.60;;
7169;SDS011;3626;42.656;23.312;2024-03-08T00:04:04;12.55;;;5.60;;
7169;SDS011;3626;42.656;23.312;2024-03-08T00:04:11;12.42;;;5.66;;
7169;SDS011;3626;42.656;23.312;2024-03-08T00:04:17;12.23;;;5.73;;
7169;SDS011;3626;42.656;23.312;2024-03-08T00:04:22;12.00;;;5.75;;
7169;SDS011;3626;42.656;23.312;2024-03-08T00:04:28;12.80;;;5.85;;
7169;SDS011;3626;42.656;23.312;2024-03-08T00:04:35;12.77;;;5.83;;
7169;SDS011;3626;42.656;23.312;2024-03-08T00:04:40;12.35;;;5.90;;
7169;SDS011;3626;42.656;23.312;2024-03-08T00:04:47;11.90;;;5.92;;
7169;SDS011;3626;42.656;23.312;2024-03-08T00:04:53;12.07;;;6.00;;
7169;SDS011;3626;42.656;23.312;2024-03-08T00:04:58;11.50;;;5.88;;
7169;SDS011;3626;42.656;23.312;2024-03-08T00:05:04;11.13;;;5.80;;
7169;SDS011;3626;42.656;23.312;2024-03-08T00:05:11;11.26;;;5.84;;
7169;SDS011;3626;42.656;23.312;2024-03-08T00:05:18;11.63;;;5.90;;
7169;SDS011;3626;42.656;23.312;2024-03-08T00:05:23;11.30;;;5.70;;
7169;SDS011;3626;42.656;23.312;2024-03-08T00:05:29;10.30;;;5.60;;
7169;SDS011;3626;42.656;23.312;2024-03-08T00:05:35;10.10;;;5.45;;
7169;SDS011;3626;42.656;23.312;2024-03-08T00:05:41;10.13;;;5.30;;
7169;SDS011;3626;42.656;23.312;2024-03-08T00:05:46;10.38;;;5.28;;
7169;SDS011;3626;42.656;23.312;2024-03-08T00:05:53;9.74;;;5.10;;
7169;SDS011;3626;42.656;23.312;2024-03-08T00:05:58;9.93;;;5.13;;
7169;SDS011;3626;42.656;23.312;2024-03-08T00:06:04;11.45;;;5.35;;
7169;SDS011;3626;42.656;23.312;2024-03-08T00:06:11;11.23;;;5.30;;
7169;SDS011;3626;42.656;23.312;2024-03-08T00:06:16;11.17;;;5.20;;
7169;SDS011;3626;42.656;23.312;2024-03-08T00:06:22;10.93;;;5.20;;
7169;SDS011;3626;42.656;23.312;2024-03-08T00:06:28;11.45;;;5.45;;
7169;SDS011;3626;42.656;23.312;2024-03-08T00:06:33;11.33;;;5.50;;
7169;SDS011;3626;42.656;23.312;2024-03-08T00:06:40;11.72;;;5.50;;
7169;SDS011;3626;42.656;23.312;2024-03-08T00:06:46;12.45;;;5.65;;
7169;SDS011;3626;42.656;23.312;2024-03-08T00:06:52;12.97;;;5.80;;
7169;SDS011;3626;42.656;23.312;2024-03-08T00:06:58;13.03;;;6.00;;
7169;SDS011;3626;42.656;23.312;2024-03-08T00:07:04;11.77;;;5.90;;
7169;SDS011;3626;42.656;23.312;2024-03-08T00:07:09;11.90;;;5.90;;
7169;SDS011;3626;42.656;23.312;2024-03-08T00:07:15;12.13;;;6.07;;
7169;SDS011;3626;42.656;23.312;2024-03-08T00:07:21;12.30;;;6.15;;
7169;SDS011;3626;42.656;23.312;2024-03-08T00:07:27;12.00;;;6.05;;
7169;SDS011;3626;42.656;23.312;2024-03-08T00:07:32;12.13;;;5.95;;
7169;SDS011;3626;42.656;23.312;2024-03-08T00:07:38;11.47;;;5.87;;
7169;SDS011;3626;42.656;23.312;2024-03-08T00:07:44;11.07;;;5.90;;
7169;SDS011;3626;42.656;23.312;2024-03-08T00:07:50;11.07;;;5.83;;
7169;SDS011;3626;42.656;23.312;2024-03-08T00:07:56;11.23;;;5.85;;
7169;SDS011;3626;42.656;23.312;2024-03-08T00:08:02;11.48;;;5.60;;
7169;SDS011;3626;42.656;23.312;2024-03-08T00:08:09;11.27;;;5.50;;
7169;SDS011;3626;42.656;23.312;2024-03-08T00:08:15;11.30;;;5.40;;
7169;SDS011;3626;42.656;23.312;2024-03-08T00:08:20;11.23;;;5.40;;
7169;SDS011;3626;42.656;23.312;2024-03-08T00:08:26;11.23;;;5.40;;
7169;SDS011;3626;42.656;23.312;2024-03-08T00:08:32;10.85;;;5.30;;
7169;SDS011;3626;42.656;23.312;2024-03-08T00:08:37;11.00;;;5.43;;
7169;SDS011;3626;42.656;23.312;2024-03-08T00:08:43;11.07;;;5.40;;
7169;SDS011;3626;42.656;23.312;2024-03-08T00:08:49;11.05;;;5.50;;
7169;SDS011;3626;42.656;23.312;2024-03-08T00:08:56;10.73;;;5.50;;
7169;SDS011;3626;42.656;23.312;2024-03-08T00:09:01;10.43;;;5.50;;
7169;SDS011;3626;42.656;23.312;2024-03-08T00:09:07;10.70;;;5.57;;
7169;SDS011;3626;42.656;23.312;2024-03-08T00:09:13;10.60;;;5.60;;
7169;SDS011;3626;42.656;23.312;2024-03-08T00:09:20;11.10;;;5.70;;
7169;SDS011;3626;42.656;23.312;2024-03-08T00:09:26;11.90;;;5.90;;
7169;SDS011;3626;42.656;23.312;2024-03-08T00:09:32;12.17;;;5.90;;
7169;SDS011;3626;42.656;23.312;2024-03-08T00:09:38;13.48;;;5.85;;
7169;SDS011;3626;42.656;23.312;2024-03-08T00:09:43;13.73;;;5.88;;
7169;SDS011;3626;42.656;23.312;2024-03-08T00:09:49;13.83;;;5.87;;
7169;SDS011;3626;42.656;23.312;2024-03-08T00:09:57;14.30;;;6.06;;
7169;SDS011;3626;42.656;23.312;2024-03-08T00:10:03;14.17;;;6.00;;
7169;SDS011;3626;42.656;23.312;2024-03-08T00:10:10;13.70;;;6.00;;
7169;SDS011;3626;42.656;23.312;2024-03-08T00:10:18;13.35;;;5.93;;
7169;SDS011;3626;42.656;23.312;2024-03-08T00:10:25;13.77;;;5.75;;
7169;SDS011;3626;42.656;23.312;2024-03-08T00:10:33;14.95;;;5.75;;
7169;SDS011;3626;42.656;23.312;2024-03-08T00:10:39;13.50;;;5.63;;
7169;SDS011;3626;42.656;23.312;2024-03-08T00:10:45;13.38;;;5.60;;
7169;SDS011;3626;42.656;23.312;2024-03-08T00:10:50;13.05;;;5.60;;
7169;SDS011;3626;42.656;23.312;2024-03-08T00:10:56;12.88;;;5.45;;
7169;SDS011;3626;42.656;23.312;2024-03-08T00:11:02;13.27;;;5.60;;
7169;SDS011;3626;42.656;23.312;2024-03-08T00:11:08;13.07;;;5.50;;
7169;SDS011;3626;42.656;23.312;2024-03-08T00:11:14;13.07;;;5.60;;
7169;SDS011;3626;42.656;23.312;2024-03-08T00:11:19;13.57;;;5.55;;
7169;SDS011;3626;42.656;23.312;2024-03-08T00:11:27;12.68;;;5.45;;
7169;SDS011;3626;42.656;23.312;2024-03-08T00:11:32;12.18;;;5.48;;
7169;SDS011;3626;42.656;23.312;2024-03-08T00:11:38;12.65;;;5.68;;
7169;SDS011;3626;42.656;23.312;2024-03-08T00:11:44;13.50;;;5.87;;
7169;SDS011;3626;42.656;23.312;2024-03-08T00:11:50;13.80;;;5.93;;
7169;SDS011;3626;42.656;23.312;2024-03-08T00:11:57;13.87;;;6.07;;
7169;SDS011;3626;42.656;23.312;2024-03-08T00:12:03;14.67;;;6.00;;
7169;SDS011;3626;42.656;23.312;2024-03-08T00:12:09;14.80;;;6.00;;
7169;SDS011;3626;42.656;23.312;2024-03-08T00:12:15;15.54;;;6.02;;
7169;SDS011;3626;42.656;23.312;2024-03-08T00:12:21;14.73;;;6.00;;
7169;SDS011;3626;42.656;23.312;2024-03-08T00:12:27;14.18;;;6.00;;
7169;SDS011;3626;42.656;23.312;2024-03-08T00:12:33;13.63;;;6.00;;
7169;SDS011;3626;42.656;23.312;2024-03-08T00:12:38;13.35;;;5.90;;
7169;SDS011;3626;42.656;23.312;2024-03-08T00:12:47;12.55;;;5.68;;
7169;SDS011;3626;42.656;23.312;2024-03-08T00:12:52;11.90;;;5.43;;
7169;SDS011;3626;42.656;23.312;2024-03-08T00:12:58;12.05;;;5.40;;
7169;SDS011;3626;42.656;23.312;2024-03-08T00:13:04;11.85;;;5.55;;
7169;SDS011;3626;42.656;23.312;2024-03-08T00:13:09;11.67;;;5.47;;
7169;SDS011;3626;42.656;23.312;2024-03-08T00:13:15;10.95;;;5.30;;
7169;SDS011;3626;42.656;23.312;2024-03-08T00:13:21;11.25;;;5.32;;
7169;SDS011;3626;42.656;23.312;2024-03-08T00:13:26;11.33;;;5.30;;
7169;SDS011;3626;42.656;23.312;2024-03-08T00:13:33;11.16;;;5.04;;
7169;SDS011;3626;42.656;23.312;2024-03-08T00:13:39;10.88;;;4.93;;
7169;SDS011;3626;42.656;23.312;2024-03-08T00:13:45;11.53;;;4.90;;
7169;SDS011;3626;42.656;23.312;2024-03-08T00:13:51;11.62;;;5.00;;
7169;SDS011;3626;42.656;23.312;2024-03-08T00:13:57;11.27;;;4.97;;
7169;SDS011;3626;42.656;23.312;2024-03-08T00:14:03;10.35;;;4.72;;
7169;SDS011;3626;42.656;23.312;2024-03-08T00:14:11;9.93;;;4.57;;
7169;SDS011;3626;42.656;23.312;2024-03-08T00:14:17;10.20;;;4.57;;
7169;SDS011;3626;42.656;23.312;2024-03-08T00:14:23;10.90;;;4.75;;
7169;SDS011;3626;42.656;23.312;2024-03-08T00:14:28;11.03;;;4.87;;
7169;SDS011;3626;42.656;23.312;2024-03-08T00:14:35;11.00;;;4.90;;
7169;SDS011;3626;42.656;23.312;2024-03-08T00:14:42;10.50;;;4.83;;
7169;SDS011;3626;42.656;23.312;2024-03-08T00:14:47;10.50;;;4.80;;
7169;SDS011;3626;42.656;23.312;2024-03-08T00:14:53;10.73;;;4.78;;
7169;SDS011;3626;42.656;23.312;2024-03-08T00:14:59;10.63;;;4.75;;
7169;SDS011;3626;42.656;23.312;2024-03-08T00:15:05;10.63;;;4.72;;
7169;SDS011;3626;42.656;23.312;2024-03-08T00:15:12;11.47;;;4.97;;
7169;SDS011;3626;42.656;23.312;2024-03-08T00:15:19;11.42;;;4.95;;
7169;SDS011;3626;42.656;23.312;2024-03-08T00:15:25;11.15;;;4.80;;
7169;SDS011;3626;42.656;23.312;2024-03-08T00:15:30;12.00;;;5.00;;
7169;SDS011;3626;42.656;23.312;2024-03-08T00:15:37;12.28;;;5.10;;
7169;SDS011;3626;42.656;23.312;2024-03-08T00:15:43;12.35;;;5.15;;
7169;SDS011;3626;42.656;23.312;2024-03-08T00:15:48;12.40;;;5.20;;
7169;SDS011;3626;42.656;23.312;2024-03-08T00:15:54;12.93;;;5.38;;
7169;SDS011;3626;42.656;23.312;2024-03-08T00:16:02;13.20;;;5.40;;
7169;SDS011;3626;42.656;23.312;2024-03-08T00:16:08;13.15;;;5.55;;
7169;SDS011;3626;42.656;23.312;2024-03-08T00:16:15;12.44;;;5.64;;
7169;SDS011;3626;42.656;23.312;2024-03-08T00:16:21;12.55;;;5.60;;
7169;SDS011;3626;42.656;23.312;2024-03-08T00:16:28;11.30;;;5.44;;
7169;SDS011;3626;42.656;23.312;2024-03-08T00:16:34;11.43;;;5.63;;
7169;SDS011;3626;42.656;23.312;2024-03-08T00:16:40;11.20;;;5.60;;
7169;SDS011;3626;42.656;23.312;2024-03-08T00:16:48;11.32;;;5.53;;
7169;SDS011;3626;42.656;23.312;2024-03-08T00:16:54;10.68;;;5.50;;
7169;SDS011;3626;42.656;23.312;2024-03-08T00:17:00;10.20;;;5.47;;
7169;SDS011;3626;42.656;23.312;2024-03-08T00:17:05;10.25;;;5.35;;
7169;SDS011;3626;42.656;23.312;2024-03-08T00:17:11;9.97;;;5.13;;
7169;SDS011;3626;42.656;23.312;2024-03-08T00:17:17;10.45;;;5.20;;
7169;SDS011;3626;42.656;23.312;2024-03-08T00:17:22;10.17;;;5.30;;
7169;SDS011;3626;42.656;23.312;2024-03-08T00:17:28;10.23;;;5.30;;
7169;SDS011;3626;42.656;23.312;2024-03-08T00:17:34;9.80;;;5.05;;
7169;SDS011;3626;42.656;23.312;2024-03-08T00:17:39;9.65;;;5.00;;
7169;SDS011;3626;42.656;23.312;2024-03-08T00:17:45;9.47;;;5.03;;
7169;SDS011;3626;42.656;23.312;2024-03-08T00:17:51;9.15;;;5.03;;
7169;SDS011;3626;42.656;23.312;2024-03-08T00:17:57;9.75;;;5.07;;
7169;SDS011;3626;42.656;23.312;2024-03-08T00:18:04;10.10;;;5.30;;
7169;SDS011;3626;42.656;23.312;2024-03-08T00:18:09;10.00;;;5.20;;
7169;SDS011;3626;42.656;23.312;2024-03-08T00:18:16;9.27;;;5.10;;
7169;SDS011;3626;42.656;23.312;2024-03-08T00:18:22;8.82;;;4.85;;
7169;SDS011;3626;42.656;23.312;2024-03-08T00:18:27;8.75;;;4.80;;
7169;SDS011;3626;42.656;23.312;2024-03-08T00:18:34;8.80;;;4.77;;
7169;SDS011;3626;42.656;23.312;2024-03-08T00:18:40;8.60;;;4.70;;
7169;SDS011;3626;42.656;23.312;2024-03-08T00:18:46;9.32;;;5.00;;
7169;SDS011;3626;42.656;23.312;2024-03-08T00:18:52;9.20;;;5.00;;
7169;SDS011;3626;42.656;23.312;2024-03-08T00:18:58;8.60;;;4.80;;
7169;SDS011;3626;42.656;23.312;2024-03-08T00:19:03;8.35;;;4.65;;
7169;SDS011;3626;42.656;23.312;2024-03-08T00:19:09;8.63;;;4.83;;
7169;SDS011;3626;42.656;23.312;2024-03-08T00:19:15;9.07;;;5.07;;
7169;SDS011;3626;42.656;23.312;2024-03-08T00:19:20;9.25;;;5.10;;
7169;SDS011;3626;42.656;23.312;2024-03-08T00:19:26;9.13;;;5.10;;
7169;SDS011;3626;42.656;23.312;2024-03-08T00:19:32;9.50;;;5.17;;
7169;SDS011;3626;42.656;23.312;2024-03-08T00:19:38;9.90;;;5.20;;
7169;SDS011;3626;42.656;23.312;2024-03-08T00:19:46;9.77;;;5.04;;
7169;SDS011;3626;42.656;23.312;2024-03-08T00:19:52;10.10;;;5.03;;
7169;SDS011;3626;42.656;23.312;2024-03-08T00:19:58;10.13;;;5.20;;
7169;SDS011;3626;42.656;23.312;2024-03-08T00:20:04;10.27;;;5.22;;
7169;SDS011;3626;42.656;23.312;2024-03-08T00:20:13;10.91;;;5.15;;
7169;SDS011;3626;42.656;23.312;2024-03-08T00:20:19;11.00;;;5.20;;
7169;SDS011;3626;42.656;23.312;2024-03-08T00:20:24;11.45;;;5.32;;
7169;SDS011;3626;42.656;23.312;2024-03-08T00:20:30;11.82;;;5.50;;
7169;SDS011;3626;42.656;23.312;2024-03-08T00:20:36;11.47;;;5.50;;
7169;SDS011;3626;42.656;23.312;2024-03-08T00:20:41;11.23;;;5.50;;
7169;SDS011;3626;42.656;23.312;2024-03-08T00:20:47;10.55;;;5.30;;
7169;SDS011;3626;42.656;23.312;2024-03-08T00:20:53;10.30;;;5.30;;
7169;SDS011;3626;42.656;23.312;2024-03-08T00:20:58;10.25;;;5.18;;
7169;SDS011;3626;42.656;23.312;2024-03-08T00:21:05;9.90;;;5.20;;
7169;SDS011;3626;42.656;23.312;2024-03-08T00:21:11;8.80;;;4.97;;
7169;SDS011;3626;42.656;23.312;2024-03-08T00:21:17;8.60;;;4.80;;
7169;SDS011;3626;42.656;23.312;2024-03-08T00:21:22;8.60;;;4.78;;
7169;SDS011;3626;42.656;23.312;2024-03-08T00:21:28;7.72;;;4.50;;
7169;SDS011;3626;42.656;23.312;2024-03-08T00:21:34;7.57;;;4.53;;
7169;SDS011;3626;42.656;23.312;2024-03-08T00:21:39;7.90;;;4.43;;
7169;SDS011;3626;42.656;23.312;2024-03-08T00:21:46;8.10;;;4.50;;
7169;SDS011;3626;42.656;23.312;2024-03-08T00:21:52;8.15;;;4.57;;
7169;SDS011;3626;42.656;23.312;2024-03-08T00:21:57;8.33;;;4.60;;
7169;SDS011;3626;42.656;23.312;2024-03-08T00:22:03;8.48;;;4.63;;
7169;SDS011;3626;42.656;23.312;2024-03-08T00:22:10;8.90;;;4.76;;
7169;SDS011;3626;42.656;23.312;2024-03-08T00:22:16;9.57;;;4.90;;
7169;SDS011;3626;42.656;23.312;2024-03-08T00:22:22;9.57;;;4.90;;
7169;SDS011;3626;42.656;23.312;2024-03-08T00:22:28;10.10;;;5.10;;
7169;SDS011;3626;42.656;23.312;2024-03-08T00:22:35;10.10;;;4.97;;
7169;SDS011;3626;42.656;23.312;2024-03-08T00:22:41;9.75;;;4.90;;
7169;SDS011;3626;42.656;23.312;2024-03-08T00:22:47;10.23;;;5.00;;
7169;SDS011;3626;42.656;23.312;2024-03-08T00:22:52;11.37;;;5.00;;
7169;SDS011;3626;42.656;23.312;2024-03-08T00:23:03;11.97;;;5.00;;
7169;SDS011;3626;42.656;23.312;2024-03-08T00:23:08;12.05;;;4.95;;
7169;SDS011;3626;42.656;23.312;2024-03-08T00:23:15;12.40;;;4.94;;
7169;SDS011;3626;42.656;23.312;2024-03-08T00:23:21;12.18;;;5.00;;
7169;SDS011;3626;42.656;23.312;2024-03-08T00:23:27;11.65;;;4.82;;
7169;SDS011;3626;42.656;23.312;2024-03-08T00:23:33;11.40;;;4.90;;
7169;SDS011;3626;42.656;23.312;2024-03-08T00:23:39;11.48;;;4.97;;
7169;SDS011;3626;42.656;23.312;2024-03-08T00:23:44;10.83;;;4.80;;
7169;SDS011;3626;42.656;23.312;2024-03-08T00:23:50;10.10;;;4.70;;
7169;SDS011;3626;42.656;23.312;2024-03-08T00:23:56;9.20;;;4.80;;
7169;SDS011;3626;42.656;23.312;2024-03-08T00:24:03;9.43;;;4.87;;
7169;SDS011;3626;42.656;23.312;2024-03-08T00:24:09;8.85;;;4.78;;
7169;SDS011;3626;42.656;23.312;2024-03-08T00:24:14;8.37;;;4.77;;
7169;SDS011;3626;42.656;23.312;2024-03-08T00:24:20;8.43;;;4.72;;
7169;SDS011;3626;42.656;23.312;2024-03-08T00:24:30;8.64;;;4.72;;
7169;SDS011;3626;42.656;23.312;2024-03-08T00:24:36;8.88;;;4.70;;
7169;SDS011;3626;42.656;23.312;2024-03-08T00:24:42;8.87;;;4.77;;
7169;SDS011;3626;42.656;23.312;2024-03-08T00:24:48;10.17;;;4.87;;
7169;SDS011;3626;42.656;23.312;2024-03-08T00:24:55;10.57;;;4.67;;
7169;SDS011;3626;42.656;23.312;2024-03-08T00:25:01;10.60;;;4.60;;
7169;SDS011;3626;42.656;23.312;2024-03-08T00:25:08;10.77;;;4.60;;
7169;SDS011;3626;42.656;23.312;2024-03-08T00:25:13;10.82;;;4.57;;
7169;SDS011;3626;42.656;23.312;2024-03-08T00:25:19;10.57;;;4.50;;
7169;SDS011;3626;42.656;23.312;2024-03-08T00:25:25;10.73;;;4.57;;
7169;SDS011;3626;42.656;23.312;2024-03-08T00:25:31;10.57;;;4.60;;
7169;SDS011;3626;42.656;23.312;2024-03-08T00:25:36;10.40;;;4.50;;
7169;SDS011;3626;42.656;23.312;2024-03-08T00:25:44;10.37;;;4.43;;
7169;SDS011;3626;42.656;23.312;2024-03-08T00:25:49;8.67;;;4.30;;
7169;SDS011;3626;42.656;23.312;2024-03-08T00:25:56;8.20;;;4.30;;
7169;SDS011;3626;42.656;23.312;2024-03-08T00:26:01;7.72;;;4.20;;
7169;SDS011;3626;42.656;23.312;2024-03-08T00:26:09;7.70;;;4.20;;
7169;SDS011;3626;42.656;23.312;2024-03-08T00:26:14;7.70;;;4.30;;
7169;SDS011;3626;42.656;23.312;2024-03-08T00:26:20;7.77;;;4.30;;
7169;SDS011;3626;42.656;23.312;2024-03-08T00:26:28;7.40;;;4.13;;
7169;SDS011;3626;42.656;23.312;2024-03-08T00:26:35;8.03;;;4.33;;
7169;SDS011;3626;42.656;23.312;2024-03-08T00:26:40;8.70;;;4.35;;
7169;SDS011;3626;42.656;23.312;2024-03-08T00:26:48;8.92;;;4.30;;
7169;SDS011;3626;42.656;23.312;2024-03-08T00:26:54;9.20;;;4.40;;
7169;SDS011;3626;42.656;23.312;2024-03-08T00:26:59;9.45;;;4.50;;
7169;SDS011;3626;42.656;23.312;2024-03-08T00:27:05;9.43;;;4.47;;
7169;SDS011;3626;42.656;23.312;2024-03-08T00:27:11;9.48;;;4.40;;
7169;SDS011;3626;42.656;23.312;2024-03-08T00:27:16;9.52;;;4.40;;
7169;SDS011;3626;42.656;23.312;2024-03-08T00:27:22;9.53;;;4.33;;
7169;SDS011;3626;42.656;23.312;2024-03-08T00:27:28;10.00;;;4.50;;
7169;SDS011;3626;42.656;23.312;2024-03-08T00:27:36;10.13;;;4.70;;
7169;SDS011;3626;42.656;23.312;2024-03-08T00:27:43;9.67;;;4.73;;
7169;SDS011;3626;42.656;23.312;2024-03-08T00:27:48;9.82;;;4.80;;
7169;SDS011;3626;42.656;23.312;2024-03-08T00:27:54;9.70;;;4.80;;
7169;SDS011;3626;42.656;23.312;2024-03-08T00:28:01;9.63;;;4.90;;
7169;SDS011;3626;42.656;23.312;2024-03-08T00:28:06;9.43;;;4.88;;
7169;SDS011;3626;42.656;23.312;2024-03-08T00:28:12;9.20;;;4.80;;
7169;SDS011;3626;42.656;23.312;2024-03-08T00:28:20;9.05;;;4.83;;
7169;SDS011;3626;42.656;23.312;2024-03-08T00:28:25;9.27;;;4.80;;
7169;SDS011;3626;42.656;23.312;2024-03-08T00:28:32;8.73;;;4.67;;
7169;SDS011;3626;42.656;23.312;2024-03-08T00:28:40;8.62;;;4.57;;
7169;SDS011;3626;42.656;23.312;2024-03-08T00:28:46;8.43;;;4.45;;
7169;SDS011;3626;42.656;23.312;2024-03-08T00:28:53;8.88;;;4.52;;
7169;SDS011;3626;42.656;23.312;2024-03-08T00:28:59;9.30;;;4.63;;
7169;SDS011;3626;42.656;23.312;2024-03-08T00:29:04;9.40;;;4.70;;
7169;SDS011;3626;42.656;23.312;2024-03-08T00:29:12;9.42;;;4.72;;
7169;SDS011;3626;42.656;23.312;2024-03-08T00:29:18;9.43;;;4.70;;
7169;SDS011;3626;42.656;23.312;2024-03-08T00:29:24;10.03;;;4.70;;
7169;SDS011;3626;42.656;23.312;2024-03-08T00:29:29;9.93;;;4.53;;
7169;SDS011;3626;42.656;23.312;2024-03-08T00:29:35;9.68;;;4.40;;
7169;SDS011;3626;42.656;23.312;2024-03-08T00:29:41;9.87;;;4.50;;
7169;SDS011;3626;42.656;23.312;2024-03-08T00:29:46;10.18;;;4.63;;
7169;SDS011;3626;42.656;23.312;2024-03-08T00:29:52;9.98;;;4.60;;
7169;SDS011;3626;42.656;23.312;2024-03-08T00:29:59;9.20;;;4.30;;
7169;SDS011;3626;42.656;23.312;2024-03-08T00:30:05;9.10;;;4.28;;
7169;SDS011;3626;42.656;23.312;2024-03-08T00:30:12;9.10;;;4.30;;
7169;SDS011;3626;42.656;23.312;2024-03-08T00:30:18;8.77;;;4.25;;
7169;SDS011;3626;42.656;23.312;2024-03-08T00:30:23;8.30;;;4.30;;
7169;SDS011;3626;42.656;23.312;2024-03-08T00:30:30;8.10;;;4.36;;
7169;SDS011;3626;42.656;23.312;2024-03-08T00:30:36;8.25;;;4.40;;
7169;SDS011;3626;42.656;23.312;2024-03-08T00:30:42;8.03;;;4.30;;
7169;SDS011;3626;42.656;23.312;2024-03-08T00:30:48;7.63;;;4.30;;
7169;SDS011;3626;42.656;23.312;2024-03-08T00:30:54;7.68;;;4.45;;
7169;SDS011;3626;42.656;23.312;2024-03-08T00:31:00;8.18;;;4.45;;
7169;SDS011;3626;42.656;23.312;2024-03-08T00:31:06;8.27;;;4.50;;
7169;SDS011;3626;42.656;23.312;2024-03-08T00:31:12;8.77;;;4.60;;
7169;SDS011;3626;42.656;23.312;2024-03-08T00:31:17;10.00;;;4.77;;
7169;SDS011;3626;42.656;23.312;2024-03-08T00:31:23;9.77;;;4.68;;
7169;SDS011;3626;42.656;23.312;2024-03-08T00:31:29;10.20;;;4.70;;
7169;SDS011;3626;42.656;23.312;2024-03-08T00:31:36;10.07;;;4.60;;
7169;SDS011;3626;42.656;23.312;2024-03-08T00:31:43;11.03;;;4.60;;
7169;SDS011;3626;42.656;23.312;2024-03-08T00:31:50;10.70;;;4.43;;
7169;SDS011;3626;42.656;23.312;2024-03-08T00:31:56;10.50;;;4.28;;
7169;SDS011;3626;42.656;23.312;2024-03-08T00:32:03;11.18;;;4.40;;
7169;SDS011;3626;42.656;23.312;2024-03-08T00:32:13;10.97;;;4.36;;
7169;SDS011;3626;42.656;23.312;2024-03-08T00:32:20;10.08;;;4.20;;
7169;SDS011;3626;42.656;23.312;2024-03-08T00:32:26;9.65;;;4.15;;
7169;SDS011;3626;42.656;23.312;2024-03-08T00:32:32;9.37;;;4.20;;
7169;SDS011;3626;42.656;23.312;2024-03-08T00:32:41;8.67;;;4.23;;
7169;SDS011;3626;42.656;23.312;2024-03-08T00:32:46;8.93;;;4.23;;
7169;SDS011;3626;42.656;23.312;2024-03-08T00:32:52;9.07;;;4.38;;
7169;SDS011;3626;42.656;23.312;2024-03-08T00:32:58;8.68;;;4.35;;
7169;SDS011;3626;42.656;23.312;2024-03-08T00:33:04;8.10;;;4.20;;
7169;SDS011;3626;42.656;23.312;2024-03-08T00:33:10;8.40;;;4.05;;
7169;SDS011;3626;42.656;23.312;2024-03-08T00:33:16;8.15;;;4.00;;
7169;SDS011;3626;42.656;23.312;2024-03-08T00:33:21;7.93;;;3.97;;
7169;SDS011;3626;42.656;23.312;2024-03-08T00:33:27;8.30;;;4.03;;
7169;SDS011;3626;42.656;23.312;2024-03-08T00:33:33;8.20;;;4.10;;
7169;SDS011;3626;42.656;23.312;2024-03-08T00:33:39;8.25;;;4.13;;
7169;SDS011;3626;42.656;23.312;2024-03-08T00:33:45;8.48;;;4.30;;
7169;SDS011;3626;42.656;23.312;2024-03-08T00:33:50;8.43;;;4.20;;
7169;SDS011;3626;42.656;23.312;2024-03-08T00:33:57;8.60;;;4.20;;
7169;SDS011;3626;42.656;23.312;2024-03-08T00:34:03;8.65;;;4.25;;
7169;SDS011;3626;42.656;23.312;2024-03-08T00:34:09;8.90;;;4.30;;
7169;SDS011;3626;42.656;23.312;2024-03-08T00:34:16;9.03;;;4.37;;
7169;SDS011;3626;42.656;23.312;2024-03-08T00:34:22;9.15;;;4.32;;
7169;SDS011;3626;42.656;23.312;2024-03-08T00:34:28;8.95;;;4.18;;
7169;SDS011;3626;42.656;23.312;2024-03-08T00:34:34;9.57;;;4.20;;
7169;SDS011;3626;42.656;23.312;2024-03-08T00:34:41;9.48;;;4.08;;
7169;SDS011;3626;42.656;23.312;2024-03-08T00:34:47;9.04;;;3.98;;
7169;SDS011;3626;42.656;23.312;2024-03-08T00:34:53;9.07;;;4.07;;
7169;SDS011;3626;42.656;23.312;2024-03-08T00:34:59;8.95;;;4.10;;
7169;SDS011;3626;42.656;23.312;2024-03-08T00:35:05;9.00;;;4.10;;
7169;SDS011;3626;42.656;23.312;2024-03-08T00:35:12;8.63;;;4.20;;
7169;SDS011;3626;42.656;23.312;2024-03-08T00:35:18;8.48;;;4.20;;
7169;SDS011;3626;42.656;23.312;2024-03-08T00:35:23;8.50;;;4.30;;
7169;SDS011;3626;42.656;23.312;2024-03-08T00:35:30;8.32;;;4.47;;
7169;SDS011;3626;42.656;23.312;2024-03-08T00:35:36;8.27;;;4.50;;
7169;SDS011;3626;42.656;23.312;2024-03-08T00:35:42;8.60;;;4.60;;
7169;SDS011;3626;42.656;23.312;2024-03-08T00:35:47;8.93;;;4.60;;
7169;SDS011;3626;42.656;23.312;2024-03-08T00:35:53;8.83;;;4.53;;
7169;SDS011;3626;42.656;23.312;2024-03-08T00:35:58;9.02;;;4.60;;
7169;SDS011;3626;42.656;23.312;2024-03-08T00:36:04;8.88;;;4.43;;
7169;SDS011;3626;42.656;23.312;2024-03-08T00:36:10;8.85;;;4.50;;
7169;SDS011;3626;42.656;23.312;2024-03-08T00:36:16;9.00;;;4.40;;
7169;SDS011;3626;42.656;23.312;2024-03-08T00:36:22;9.63;;;4.40;;
7169;SDS011;3626;42.656;23.312;2024-03-08T00:36:27;9.50;;;4.22;;
7169;SDS011;3626;42.656;23.312;2024-03-08T00:36:35;9.50;;;4.20;;
7169;SDS011;3626;42.656;23.312;2024-03-08T00:36:40;9.13;;;4.03;;
7169;SDS011;3626;42.656;23.312;2024-03-08T00:36:46;9.17;;;4.10;;
7169;SDS011;3626;42.656;23.312;2024-03-08T00:36:52;9.00;;;4.10;;
7169;SDS011;3626;42.656;23.312;2024-03-08T00:36:58;8.63;;;3.93;;
7169;SDS011;3626;42.656;23.312;2024-03-08T00:37:04;8.57;;;3.97;;
7169;SDS011;3626;42.656;23.312;2024-03-08T00:37:10;8.60;;;4.00;;